createdAt,value
2022-12-26T00:00:42.101Z,132.02
2022-12-26T00:03:28.022Z,124.82
2022-12-26T00:06:20.184Z,144.73
2022-12-26T00:09:06.997Z,136.77
2022-12-26T00:11:52.639Z,129.35
2022-12-26T00:14:39.242Z,136.75
2022-12-26T00:17:24.638Z,132.32
2022-12-26T00:20:10.840Z,139.38
2022-12-26T00:22:56.602Z,122.78
2022-12-26T00:25:42.719Z,136.68
2022-12-26T00:28:28.271Z,133.85
2022-12-26T00:31:19.624Z,133.95
2022-12-26T00:34:05.432Z,132.27
2022-12-26T00:36:51.128Z,131.88
2022-12-26T00:39:36.673Z,128.38
2022-12-26T00:42:22.320Z,126.35
2022-12-26T00:45:08.367Z,126.07
2022-12-26T00:47:53.996Z,131.43
2022-12-26T00:50:39.668Z,132.05
2022-12-26T00:53:26.280Z,126.10
2022-12-26T00:56:12.821Z,131.45
2022-12-26T00:58:58.350Z,121.47
2022-12-26T01:01:44.027Z,132.55
2022-12-26T01:04:29.826Z,116.07
2022-12-26T01:07:15.607Z,119.97
2022-12-26T01:10:01.328Z,119.57
2022-12-26T01:12:47.074Z,124.07
2022-12-26T01:15:32.548Z,115.45
2022-12-26T01:18:20.604Z,117.45
2022-12-26T01:21:08.999Z,118.85
2022-12-26T01:23:55.340Z,114.18
2022-12-26T01:26:41.053Z,119.82
2022-12-26T01:29:26.700Z,120.55
2022-12-26T01:32:12.091Z,112.20
2022-12-26T01:34:57.729Z,114.57
2022-12-26T01:37:43.563Z,113.07
2022-12-26T01:40:29.171Z,121.93
2022-12-26T01:43:16.094Z,104.55
2022-12-26T01:46:02.193Z,112.13
2022-12-26T01:48:47.840Z,109.47
2022-12-26T01:51:38.683Z,104.35
2022-12-26T01:54:38.035Z,102.90
2022-12-26T01:57:37.242Z,99.45
2022-12-26T02:00:23.184Z,95.22
2022-12-26T02:03:28.605Z,93.32
2022-12-26T02:06:15.441Z,103.03
2022-12-26T02:09:01.556Z,92.43
2022-12-26T02:12:34.322Z,93.68
2022-12-26T02:15:05.006Z,97.72
2022-12-26T02:17:51.021Z,95.22
2022-12-26T02:20:54.783Z,98.13
2022-12-26T02:24:14.293Z,85.15
2022-12-26T02:27:13.096Z,80.50
2022-12-26T02:30:09.577Z,75.65
2022-12-26T02:33:16.539Z,77.30
2022-12-26T02:36:05.137Z,80.95
2022-12-26T02:39:42.311Z,78.50
2022-12-26T02:42:36.109Z,76.95
2022-12-26T02:45:40.216Z,80.35
2022-12-26T02:48:45.693Z,71.25
2022-12-26T02:52:31.416Z,72.80
2022-12-26T02:55:42.466Z,73.20
2022-12-26T02:58:55.916Z,80.22
2022-12-26T03:02:04.679Z,74.03
2022-12-26T03:05:11.327Z,76.13
2022-12-26T03:08:17.223Z,72.60
2022-12-26T03:11:22.087Z,72.72
2022-12-26T03:14:29.856Z,76.70
2022-12-26T03:17:30.470Z,72.80
2022-12-26T03:20:20.197Z,71.88
2022-12-26T03:23:15.172Z,76.15
2022-12-26T03:26:26.067Z,71.13
2022-12-26T03:29:38.921Z,82.63
2022-12-26T03:32:24.212Z,85.10
2022-12-26T03:35:14.472Z,89.05
2022-12-26T03:38:14.481Z,83.53
2022-12-26T03:41:40.356Z,76.68
2022-12-26T03:45:10.355Z,73.05
2022-12-26T03:48:36.747Z,80.82
2022-12-26T03:52:14.724Z,77.03
2022-12-26T03:55:29.111Z,69.40
2022-12-26T03:58:44.097Z,79.75
2022-12-26T04:01:51.722Z,81.88
2022-12-26T04:05:20.264Z,74.55
2022-12-26T04:08:35.125Z,72.88
2022-12-26T04:11:42.116Z,81.00
2022-12-26T04:14:58.428Z,77.43
2022-12-26T04:18:24.449Z,80.07
2022-12-26T04:21:34.939Z,75.10
2022-12-26T04:24:45.020Z,80.78
2022-12-26T04:27:50.987Z,77.38
2022-12-26T04:30:59.380Z,76.30
2022-12-26T04:34:11.889Z,79.72
2022-12-26T04:37:19.871Z,78.00
2022-12-26T04:40:28.731Z,72.15
2022-12-26T04:43:49.615Z,76.28
2022-12-26T04:46:42.946Z,81.25
2022-12-26T04:49:47.213Z,77.35
2022-12-26T04:52:51.506Z,72.38
2022-12-26T04:55:37.365Z,70.68
2022-12-26T04:58:24.367Z,82.07
2022-12-26T05:01:28.668Z,72.35
2022-12-26T05:04:36.070Z,76.15
2022-12-26T05:07:42.204Z,78.25
2022-12-26T05:10:28.823Z,69.35
2022-12-26T05:13:14.612Z,63.00
2022-12-26T05:16:19.753Z,68.25
2022-12-26T05:19:24.558Z,70.93
2022-12-26T05:22:30.925Z,66.40
2022-12-26T05:25:38.867Z,67.57
2022-12-26T05:28:42.774Z,66.90
2022-12-26T05:31:34.988Z,67.82
2022-12-26T05:34:21.585Z,66.72
2022-12-26T05:37:07.275Z,69.32
2022-12-26T05:39:52.759Z,68.65
2022-12-26T05:42:38.400Z,70.22
2022-12-26T05:45:24.308Z,72.25
2022-12-26T05:48:10.212Z,75.97
2022-12-26T05:51:00.397Z,75.85
2022-12-26T05:53:46.255Z,70.97
2022-12-26T05:56:32.365Z,70.32
2022-12-26T05:59:17.958Z,67.72
2022-12-26T06:02:03.991Z,62.22
2022-12-26T06:04:49.878Z,62.78
2022-12-26T06:07:35.465Z,57.42
2022-12-26T06:10:21.441Z,54.40
2022-12-26T06:13:06.917Z,54.50
2022-12-26T06:15:52.823Z,53.67
2022-12-26T06:18:39.303Z,52.83
2022-12-26T06:21:24.986Z,50.47
2022-12-26T06:24:10.858Z,46.92
2022-12-26T06:26:56.332Z,50.75
2022-12-26T06:29:42.151Z,53.63
2022-12-26T06:32:27.658Z,54.45
2022-12-26T06:35:13.411Z,53.65
2022-12-26T06:37:59.389Z,49.53
2022-12-26T06:41:13.877Z,45.85
2022-12-26T06:44:00.097Z,54.22
2022-12-26T06:46:46.170Z,53.25
2022-12-26T06:49:33.211Z,49.30
2022-12-26T06:52:21.392Z,50.45
2022-12-26T06:55:07.781Z,50.05
2022-12-26T06:57:53.700Z,50.88
2022-12-26T07:00:39.712Z,46.90
2022-12-26T07:03:26.401Z,57.10
2022-12-26T07:13:44.105Z,47.70
2022-12-26T07:16:34.395Z,51.28
2022-12-26T07:19:20.400Z,48.22
2022-12-26T07:22:05.866Z,50.55
2022-12-26T07:24:51.584Z,51.60
2022-12-26T07:28:03.346Z,56.58
2022-12-26T07:30:50.305Z,54.45
2022-12-26T07:33:35.891Z,50.50
2022-12-26T07:36:22.034Z,52.03
2022-12-26T07:39:13.450Z,54.53
2022-12-26T07:41:59.013Z,53.63
2022-12-26T07:44:44.395Z,51.65
2022-12-26T07:47:30.001Z,51.65
2022-12-26T07:50:15.639Z,53.78
2022-12-26T07:53:01.587Z,56.92
2022-12-26T07:55:48.407Z,54.80
2022-12-26T07:58:37.141Z,49.95
2022-12-26T08:01:23.156Z,57.08
2022-12-26T08:04:10.920Z,63.38
2022-12-26T08:06:57.180Z,63.22
2022-12-26T08:09:44.948Z,55.10
2022-12-26T08:12:32.866Z,53.88
2022-12-26T08:15:18.568Z,59.42
2022-12-26T08:18:04.282Z,61.83
2022-12-26T08:20:50.424Z,56.50
2022-12-26T08:23:36.114Z,57.45
2022-12-26T08:26:23.246Z,62.08
2022-12-26T08:29:10.953Z,63.45
2022-12-26T08:31:57.163Z,59.70
2022-12-26T08:34:45.732Z,57.80
2022-12-26T08:37:31.340Z,58.80
2022-12-26T08:40:26.824Z,60.17
2022-12-26T08:44:23.574Z,65.28
2022-12-26T08:46:29.993Z,66.85
2022-12-26T08:49:16.057Z,65.95
2022-12-26T08:52:01.930Z,70.63
2022-12-26T08:54:48.359Z,67.63
2022-12-26T08:57:34.063Z,71.90
2022-12-26T09:00:23.912Z,76.70
2022-12-26T09:03:10.946Z,77.28
2022-12-26T09:06:05.676Z,82.18
2022-12-26T09:08:51.975Z,82.43
2022-12-26T09:11:39.016Z,84.75
2022-12-26T09:14:24.700Z,79.63
2022-12-26T09:17:11.958Z,77.55
2022-12-26T09:19:57.663Z,83.93
2022-12-26T09:22:52.155Z,93.78
2022-12-26T09:25:37.689Z,88.28
2022-12-26T09:28:23.116Z,92.13
2022-12-26T09:31:14.756Z,81.85
2022-12-26T09:34:07.764Z,96.15
2022-12-26T09:36:53.545Z,83.72
2022-12-26T09:39:39.053Z,81.45
2022-12-26T09:42:39.991Z,78.30
2022-12-26T09:45:44.820Z,87.18
2022-12-26T09:48:46.830Z,77.07
2022-12-26T09:51:34.499Z,79.65
2022-12-26T09:54:32.699Z,87.03
2022-12-26T09:57:37.956Z,87.53
2022-12-26T10:00:37.253Z,87.05
2022-12-26T10:03:24.134Z,83.25
2022-12-26T10:06:16.681Z,86.68
2022-12-26T10:09:14.701Z,82.07
2022-12-26T10:12:06.782Z,84.40
2022-12-26T10:15:03.606Z,81.10
2022-12-26T10:18:23.296Z,80.15
2022-12-26T10:21:17.756Z,78.32
2022-12-26T10:24:20.392Z,75.18
2022-12-26T10:27:15.719Z,75.38
2022-12-26T10:30:32.881Z,82.63
2022-12-26T10:34:17.554Z,71.25
2022-12-26T10:37:23.101Z,74.30
2022-12-26T10:40:31.348Z,76.38
2022-12-26T10:43:35.768Z,69.35
2022-12-26T10:46:30.585Z,66.15
2022-12-26T10:49:18.521Z,67.10
2022-12-26T10:52:05.955Z,67.90
2022-12-26T10:55:28.595Z,61.83
2022-12-26T10:58:20.435Z,61.40
2022-12-26T11:01:28.304Z,66.72
2022-12-26T11:04:44.585Z,70.35
2022-12-26T11:07:33.584Z,62.90
2022-12-26T11:10:28.045Z,63.00
2022-12-26T11:13:23.851Z,52.90
2022-12-26T11:16:10.813Z,54.25
2022-12-26T11:18:58.452Z,55.30
2022-12-26T11:21:54.312Z,56.17
2022-12-26T11:24:40.125Z,55.65
2022-12-26T11:27:25.487Z,52.35
2022-12-26T11:30:22.157Z,55.08
2022-12-26T11:33:20.832Z,59.80
2022-12-26T11:36:15.715Z,56.95
2022-12-26T11:39:06.146Z,56.03
2022-12-26T11:41:52.742Z,49.95
2022-12-26T11:44:42.524Z,55.40
2022-12-26T11:47:29.404Z,56.88
2022-12-26T11:50:21.262Z,48.38
2022-12-26T11:53:07.442Z,50.60
2022-12-26T11:56:02.265Z,55.45
2022-12-26T11:58:48.099Z,49.25
2022-12-26T12:01:34.043Z,49.85
2022-12-26T12:04:20.001Z,47.30
2022-12-26T12:07:32.409Z,44.83
2022-12-26T12:10:47.849Z,52.17
2022-12-26T12:13:36.492Z,45.15
2022-12-26T12:16:40.859Z,46.53
2022-12-26T12:19:47.038Z,51.08
2022-12-26T12:23:00.743Z,40.38
2022-12-26T12:26:20.803Z,48.10
2022-12-26T12:29:12.642Z,43.85
2022-12-26T12:32:37.096Z,40.03
2022-12-26T12:39:27.988Z,43.58
2022-12-26T12:42:32.081Z,43.63
2022-12-26T12:45:23.186Z,45.33
2022-12-26T12:48:42.784Z,46.72
2022-12-26T12:52:07.884Z,52.67
2022-12-26T12:55:02.632Z,46.03
2022-12-26T12:58:09.635Z,44.10
2022-12-26T13:01:18.932Z,40.90
2022-12-26T13:04:34.458Z,37.45
2022-12-26T13:07:46.811Z,40.47
2022-12-26T13:10:38.322Z,50.57
2022-12-26T13:13:54.291Z,42.10
2022-12-26T13:16:43.886Z,41.70
2022-12-26T13:20:02.841Z,43.53
2022-12-26T13:23:23.143Z,39.85
2022-12-26T13:26:14.459Z,42.25
2022-12-26T13:29:06.566Z,38.15
2022-12-26T13:31:52.749Z,41.25
2022-12-26T13:34:42.654Z,43.25
2022-12-26T13:37:40.733Z,46.88
2022-12-26T13:40:29.720Z,41.72
2022-12-26T13:43:38.047Z,47.42
2022-12-26T13:46:42.024Z,39.92
2022-12-26T13:49:37.025Z,46.17
2022-12-26T13:52:35.113Z,48.10
2022-12-26T13:55:31.157Z,55.95
2022-12-26T13:58:58.684Z,58.65
2022-12-26T14:01:55.758Z,56.33
2022-12-26T14:04:56.763Z,63.08
2022-12-26T14:08:09.015Z,54.70
2022-12-26T14:11:28.807Z,57.58
2022-12-26T14:14:26.702Z,58.75
2022-12-26T14:17:48.709Z,57.30
2022-12-26T14:20:56.119Z,58.47
2022-12-26T14:23:48.412Z,55.38
2022-12-26T14:26:58.349Z,53.33
2022-12-26T14:30:08.723Z,55.92
2022-12-26T14:33:23.791Z,53.70
2022-12-26T14:36:27.922Z,54.70
2022-12-26T14:39:44.111Z,53.67
2022-12-26T14:42:48.951Z,53.95
2022-12-26T14:45:37.965Z,59.00
2022-12-26T14:48:24.125Z,63.00
2022-12-26T14:51:15.691Z,56.67
2022-12-26T14:54:25.721Z,51.80
2022-12-26T14:57:39.820Z,57.70
2022-12-26T15:00:29.220Z,48.13
2022-12-26T15:03:28.694Z,59.72
2022-12-26T15:06:42.900Z,49.72
2022-12-26T15:09:34.315Z,56.40
2022-12-26T15:12:38.602Z,47.97
2022-12-26T15:15:28.278Z,52.00
2022-12-26T15:18:35.260Z,51.75
2022-12-26T15:21:28.148Z,56.53
2022-12-26T15:25:17.062Z,49.70
2022-12-26T15:28:01.395Z,46.97
2022-12-26T15:31:02.036Z,49.90
2022-12-26T15:33:59.109Z,50.78
2022-12-26T15:37:00.191Z,50.60
2022-12-26T15:40:25.409Z,49.65
2022-12-26T15:43:30.715Z,49.22
2022-12-26T15:46:29.137Z,49.85
2022-12-26T15:50:07.038Z,50.85
2022-12-26T15:53:09.487Z,48.67
2022-12-26T15:56:23.724Z,44.00
2022-12-26T15:59:33.502Z,47.55
2022-12-26T16:02:25.527Z,50.55
2022-12-26T16:05:11.548Z,50.15
2022-12-26T16:08:16.764Z,47.90
2022-12-26T16:11:15.753Z,46.63
2022-12-26T16:14:03.944Z,49.88
2022-12-26T16:16:49.598Z,60.08
2022-12-26T16:19:35.067Z,49.05
2022-12-26T16:22:49.566Z,46.58
2022-12-26T16:25:38.056Z,49.53
2022-12-26T16:28:36.474Z,49.15
2022-12-26T16:31:34.916Z,47.17
2022-12-26T16:34:35.867Z,48.28
2022-12-26T16:37:24.240Z,47.65
2022-12-26T16:40:12.946Z,45.60
2022-12-26T16:43:22.068Z,51.25
2022-12-26T16:46:11.499Z,50.20
2022-12-26T16:49:01.516Z,54.80
2022-12-26T16:51:49.899Z,49.60
2022-12-26T16:54:42.320Z,53.40
2022-12-26T16:57:27.877Z,55.88
2022-12-26T17:00:24.286Z,49.70
2022-12-26T17:03:23.995Z,50.15
2022-12-26T17:06:17.923Z,56.28
2022-12-26T17:09:12.843Z,70.18
2022-12-26T17:12:04.871Z,68.32
2022-12-26T17:14:51.956Z,65.90
2022-12-26T17:17:38.828Z,64.07
2022-12-26T17:20:32.015Z,61.50
2022-12-26T17:23:36.770Z,59.28
2022-12-26T17:26:25.823Z,57.53
2022-12-26T17:29:47.968Z,60.65
2022-12-26T17:32:37.084Z,54.35
2022-12-26T17:35:27.391Z,60.95
2022-12-26T17:38:40.003Z,56.20
2022-12-26T17:41:25.266Z,59.95
2022-12-26T17:44:40.801Z,60.63
2022-12-26T17:47:28.655Z,63.40
2022-12-26T17:50:15.435Z,75.75
2022-12-26T17:53:31.413Z,83.43
2022-12-26T17:56:21.212Z,73.93
2022-12-26T17:59:14.496Z,69.03
2022-12-26T18:02:00.179Z,77.20
2022-12-26T18:04:46.953Z,70.85
2022-12-26T18:07:33.099Z,74.10
2022-12-26T18:10:22.190Z,74.60
2022-12-26T18:13:15.036Z,66.35
2022-12-26T18:16:01.061Z,66.97
2022-12-26T18:18:48.217Z,69.35
2022-12-26T18:21:33.995Z,59.15
2022-12-26T18:24:19.624Z,65.10
2022-12-26T18:27:05.401Z,87.15
2022-12-26T18:30:36.447Z,87.45
2022-12-26T18:33:23.174Z,76.15
2022-12-26T18:36:16.088Z,62.28
2022-12-26T18:39:02.462Z,78.20
2022-12-26T18:41:48.137Z,63.45
2022-12-26T18:44:33.633Z,64.38
2022-12-26T18:47:20.763Z,58.47
2022-12-26T18:50:12.101Z,59.33
2022-12-26T18:52:57.777Z,66.53
2022-12-26T18:55:43.279Z,65.35
2022-12-26T18:58:28.901Z,64.55
2022-12-26T19:01:16.460Z,82.55
2022-12-26T19:04:02.484Z,63.47
2022-12-26T19:06:47.991Z,64.20
2022-12-26T19:09:33.675Z,72.55
2022-12-26T19:12:19.628Z,74.03
2022-12-26T19:15:05.739Z,72.50
2022-12-26T19:17:51.342Z,81.43
2022-12-26T19:20:43.682Z,75.20
2022-12-26T19:23:29.736Z,73.65
2022-12-26T19:26:17.700Z,64.07
2022-12-26T19:29:03.208Z,68.95
2022-12-26T19:31:48.910Z,61.95
2022-12-26T19:34:34.461Z,60.50
2022-12-26T19:37:20.143Z,60.78
2022-12-26T19:40:07.349Z,67.25
2022-12-26T19:42:53.466Z,58.20
2022-12-26T19:49:09.361Z,68.93
2022-12-26T19:51:54.825Z,68.47
2022-12-26T19:54:40.590Z,70.90
2022-12-26T19:58:16.885Z,70.13
2022-12-26T20:01:11.896Z,59.70
2022-12-26T20:04:02.253Z,61.67
2022-12-26T20:06:48.117Z,63.92
2022-12-26T20:09:33.603Z,54.90
2022-12-26T20:12:19.193Z,59.92
2022-12-26T20:15:08.959Z,58.78
2022-12-26T20:17:54.983Z,59.75
2022-12-26T20:20:40.802Z,57.65
2022-12-26T20:23:27.118Z,53.75
2022-12-26T20:26:19.161Z,57.97
2022-12-26T20:29:04.634Z,52.60
2022-12-26T20:31:50.257Z,60.85
2022-12-26T20:34:35.764Z,55.92
2022-12-26T20:37:21.354Z,54.13
2022-12-26T20:40:07.594Z,59.50
2022-12-26T20:42:53.406Z,55.90
2022-12-26T20:45:39.239Z,56.40
2022-12-26T20:48:25.448Z,57.40
2022-12-26T20:51:14.148Z,68.03
2022-12-26T20:53:59.839Z,70.72
2022-12-26T20:56:45.575Z,56.70
2022-12-26T20:59:30.950Z,57.15
2022-12-26T21:02:17.196Z,55.65
2022-12-26T21:05:02.906Z,63.45
2022-12-26T21:07:48.262Z,76.82
2022-12-26T21:10:34.164Z,76.35
2022-12-26T21:13:20.305Z,80.22
2022-12-26T21:16:25.513Z,77.45
2022-12-26T21:19:15.361Z,77.43
2022-12-26T21:22:01.573Z,73.47
2022-12-26T21:24:47.075Z,78.15
2022-12-26T21:27:33.957Z,73.22
2022-12-26T21:30:19.603Z,78.45
2022-12-26T21:33:05.137Z,73.00
2022-12-26T21:35:53.261Z,68.53
2022-12-26T21:38:39.800Z,74.35
2022-12-26T21:41:25.828Z,69.03
2022-12-26T21:44:11.328Z,71.18
2022-12-26T21:46:57.459Z,74.25
2022-12-26T21:49:43.115Z,65.75
2022-12-26T21:52:28.605Z,60.60
2022-12-26T21:55:26.132Z,59.83
2022-12-26T21:58:11.516Z,59.72
2022-12-26T22:00:57.163Z,60.25
2022-12-26T22:04:01.780Z,68.22
2022-12-26T22:06:50.050Z,69.28
2022-12-26T22:09:35.465Z,68.93
2022-12-26T22:12:39.702Z,65.30
2022-12-26T22:15:44.368Z,66.35
2022-12-26T22:18:45.313Z,68.57
2022-12-26T22:21:30.917Z,68.07
2022-12-26T22:24:16.566Z,67.28
2022-12-26T22:27:02.085Z,70.82
2022-12-26T22:29:47.809Z,70.05
2022-12-26T22:32:33.470Z,67.45
2022-12-26T22:35:19.284Z,69.43
2022-12-26T22:38:04.968Z,69.28
2022-12-26T22:40:58.135Z,68.18
2022-12-26T22:43:44.133Z,69.80
2022-12-26T22:46:29.814Z,72.95
2022-12-26T22:49:15.618Z,73.22
2022-12-26T22:52:01.141Z,66.13
2022-12-26T22:54:46.772Z,67.63
2022-12-26T22:57:32.332Z,68.90
2022-12-26T23:00:18.128Z,69.95
2022-12-26T23:03:04.056Z,67.60
2022-12-26T23:05:50.720Z,66.35
2022-12-26T23:08:36.506Z,65.72
2022-12-26T23:11:26.175Z,74.22
2022-12-26T23:14:14.694Z,70.77
2022-12-26T23:17:04.906Z,68.78
2022-12-26T23:20:30.920Z,65.40
2022-12-26T23:23:17.075Z,67.82
2022-12-26T23:26:02.791Z,67.82
2022-12-26T23:29:06.600Z,67.82
2022-12-26T23:31:52.319Z,69.07
2022-12-26T23:34:38.224Z,64.03
2022-12-26T23:37:24.568Z,64.97
2022-12-26T23:40:13.508Z,64.28
2022-12-26T23:42:59.091Z,64.95
2022-12-26T23:45:45.580Z,65.72
2022-12-26T23:48:33.871Z,72.30
2022-12-26T23:51:19.635Z,60.40
2022-12-26T23:54:05.337Z,54.10
2022-12-26T23:56:52.167Z,55.80
2022-12-26T23:59:37.851Z,54.35
